createdAt,value
2024-03-02T00:03:33.849Z,25.45
2024-03-02T00:08:37.657Z,18.00
2024-03-02T00:13:41.403Z,24.95
2024-03-02T00:18:46.503Z,23.65
2024-03-02T00:23:53.093Z,23.45
2024-03-02T00:28:59.018Z,22.58
2024-03-02T00:34:08.603Z,25.25
2024-03-02T00:39:17.310Z,23.75
2024-03-02T00:44:22.332Z,23.50
2024-03-02T00:49:27.838Z,23.38
2024-03-02T00:59:34.837Z,21.90
2024-03-02T01:04:39.463Z,22.02
2024-03-02T01:09:42.975Z,22.20
2024-03-02T01:14:46.401Z,21.77
2024-03-02T01:19:51.084Z,20.98
2024-03-02T01:24:54.536Z,20.87
2024-03-02T01:29:57.846Z,20.70
2024-03-02T01:35:02.497Z,21.25
2024-03-02T01:40:10.376Z,19.70
2024-03-02T01:45:13.846Z,19.75
2024-03-02T01:50:26.514Z,19.30
2024-03-02T01:55:31.211Z,19.17
2024-03-02T02:00:34.677Z,19.13
2024-03-02T02:05:39.638Z,18.23
2024-03-02T02:10:43.696Z,17.38
2024-03-02T02:15:47.508Z,17.25
2024-03-02T02:20:52.328Z,17.63
2024-03-02T02:25:57.065Z,19.33
2024-03-02T02:31:01.854Z,17.53
2024-03-02T02:36:06.474Z,16.25
2024-03-02T02:41:11.272Z,15.55
2024-03-02T02:46:14.484Z,14.63
2024-03-02T02:51:18.745Z,15.40
2024-03-02T02:56:23.341Z,15.90
2024-03-02T03:01:26.946Z,15.77
2024-03-02T03:06:30.260Z,16.25
2024-03-02T03:11:35.022Z,16.17
2024-03-02T03:16:38.332Z,14.97
2024-03-02T03:21:41.640Z,16.52
2024-03-02T03:26:46.327Z,15.73
2024-03-02T03:31:49.581Z,14.47
2024-03-02T03:36:52.917Z,17.27
2024-03-02T03:41:57.550Z,15.25
2024-03-02T03:47:02.055Z,15.23
2024-03-02T03:52:06.293Z,14.23
2024-03-02T03:57:11.001Z,14.35
2024-03-02T04:02:14.412Z,13.47
2024-03-02T04:07:17.727Z,14.27
2024-03-02T04:12:22.470Z,16.38
2024-03-02T04:17:26.915Z,13.65
2024-03-02T04:22:30.497Z,15.77
2024-03-02T04:27:35.689Z,15.00
2024-03-02T04:32:39.882Z,14.82
2024-03-02T04:37:43.662Z,14.27
2024-03-02T04:42:48.413Z,15.48
2024-03-02T04:47:51.780Z,16.97
2024-03-02T04:52:55.187Z,14.20
2024-03-02T04:58:00.313Z,14.48
2024-03-02T05:03:04.191Z,15.50
2024-03-02T05:08:07.896Z,14.50
2024-03-02T05:13:12.579Z,15.75
2024-03-02T05:18:16.083Z,15.27
2024-03-02T05:23:19.551Z,14.00
2024-03-02T05:28:24.266Z,14.90
2024-03-02T05:33:27.594Z,16.73
2024-03-02T05:38:31.219Z,15.73
2024-03-02T05:43:36.241Z,15.80
2024-03-02T05:48:39.577Z,16.03
2024-03-02T05:53:43.125Z,16.60
2024-03-02T05:58:59.025Z,16.35
2024-03-02T06:04:02.387Z,17.25
2024-03-02T06:09:09.098Z,16.10
2024-03-02T06:14:14.100Z,15.52
2024-03-02T06:19:17.496Z,15.00
2024-03-02T06:24:20.825Z,14.85
2024-03-02T06:29:25.494Z,18.13
2024-03-02T06:34:29.233Z,17.43
2024-03-02T06:39:35.139Z,17.30
2024-03-02T06:44:39.774Z,17.08
2024-03-02T06:49:43.413Z,17.90
2024-03-02T06:54:46.737Z,17.33
2024-03-02T06:59:54.961Z,17.45
2024-03-02T07:04:58.660Z,17.25
2024-03-02T07:10:02.166Z,18.02
2024-03-02T07:15:26.116Z,17.52
2024-03-02T07:20:29.530Z,18.48
2024-03-02T07:30:41.125Z,17.58
2024-03-02T07:40:47.577Z,16.48
2024-03-02T07:45:52.317Z,16.60
2024-03-02T07:50:55.570Z,15.40
2024-03-02T07:56:03.376Z,16.38
2024-03-02T08:01:08.048Z,14.98
2024-03-02T08:06:11.404Z,16.20
2024-03-02T08:11:14.645Z,16.38
2024-03-02T08:16:21.045Z,16.83
2024-03-02T08:21:24.463Z,15.68
2024-03-02T08:26:30.075Z,15.20
2024-03-02T08:31:34.716Z,17.08
2024-03-02T08:36:38.220Z,15.90
2024-03-02T08:41:41.503Z,18.65
2024-03-02T08:46:46.540Z,16.92
2024-03-02T08:51:55.723Z,15.17
2024-03-02T08:56:59.242Z,16.75
2024-03-02T09:02:03.925Z,16.17
2024-03-02T09:07:08.453Z,17.33
2024-03-02T09:12:12.151Z,16.88
2024-03-02T09:17:16.898Z,17.65
2024-03-02T09:22:20.306Z,19.20
2024-03-02T09:27:23.735Z,16.58
2024-03-02T09:32:28.449Z,16.80
2024-03-02T09:37:31.767Z,15.63
2024-03-02T09:42:35.093Z,16.00
2024-03-02T09:47:40.391Z,15.98
2024-03-02T09:52:45.017Z,13.57
2024-03-02T09:57:49.704Z,14.93
2024-03-02T10:02:54.527Z,15.33
2024-03-02T10:08:04.761Z,15.07
2024-03-02T10:13:09.852Z,13.30
2024-03-02T10:18:17.099Z,14.52
2024-03-02T10:23:21.904Z,12.57
2024-03-02T10:28:25.466Z,12.27
2024-03-02T10:33:31.098Z,13.05
2024-03-02T10:38:34.455Z,12.07
2024-03-02T10:43:38.250Z,11.73
2024-03-02T10:48:46.064Z,12.77
2024-03-02T10:53:49.664Z,11.32
2024-03-02T10:58:57.647Z,10.43
2024-03-02T11:04:06.558Z,9.55
2024-03-02T11:09:11.674Z,8.88
2024-03-02T11:14:18.664Z,6.90
2024-03-02T11:19:23.983Z,6.90
2024-03-02T11:29:47.014Z,7.90
2024-03-02T11:34:52.865Z,8.02
2024-03-02T11:39:56.669Z,7.97
2024-03-02T11:45:00.156Z,9.43
2024-03-02T11:50:08.032Z,8.07
2024-03-02T11:55:13.796Z,7.05
2024-03-02T12:00:20.272Z,8.18
2024-03-02T12:05:25.494Z,7.85
2024-03-02T12:10:29.134Z,7.43
2024-03-02T12:15:34.384Z,7.97
2024-03-02T12:25:43.044Z,6.45
2024-03-02T12:30:46.520Z,7.53
2024-03-02T12:35:52.053Z,7.07
2024-03-02T12:40:55.814Z,7.88
2024-03-02T12:45:59.360Z,7.93
2024-03-02T12:51:04.777Z,7.22
2024-03-02T13:01:16.049Z,5.83
2024-03-02T13:06:21.968Z,6.78
2024-03-02T13:11:27.327Z,6.88
2024-03-02T13:16:33.239Z,6.68
2024-03-02T13:21:45.202Z,6.35
2024-03-02T13:26:48.560Z,5.73
2024-03-02T13:31:53.617Z,5.47
2024-03-02T13:36:58.558Z,5.97
2024-03-02T13:42:05.360Z,7.70
2024-03-02T13:47:08.930Z,6.95
2024-03-02T13:52:14.629Z,6.97
2024-03-02T13:57:23.129Z,6.85
2024-03-02T14:02:28.124Z,6.70
2024-03-02T14:07:32.867Z,6.28
2024-03-02T14:12:36.252Z,7.25
2024-03-02T14:17:39.553Z,5.47
2024-03-02T14:22:44.597Z,6.20
2024-03-02T14:28:07.745Z,6.10
2024-03-02T14:33:12.040Z,5.88
2024-03-02T14:38:16.746Z,5.97
2024-03-02T14:43:20.074Z,5.07
2024-03-02T14:48:23.699Z,4.40
2024-03-02T14:53:28.324Z,4.53
2024-03-02T14:58:31.616Z,4.13
2024-03-02T15:03:35.339Z,4.80
2024-03-02T15:08:42.560Z,4.43
2024-03-02T15:13:46.033Z,4.50
2024-03-02T15:18:49.547Z,4.38
2024-03-02T15:23:54.407Z,5.07
2024-03-02T15:29:00.157Z,4.30
2024-03-02T15:34:04.091Z,4.45
2024-03-02T15:39:10.120Z,4.63
2024-03-02T15:44:13.679Z,5.80
2024-03-02T15:49:20.013Z,5.60
2024-03-02T15:54:25.908Z,5.32
2024-03-02T15:59:29.127Z,5.67
2024-03-02T16:04:32.392Z,5.55
2024-03-02T16:09:37.096Z,5.55
2024-03-02T16:14:40.800Z,5.10
2024-03-02T16:19:44.135Z,5.38
2024-03-02T16:24:48.870Z,7.18
2024-03-02T16:29:52.252Z,7.23
2024-03-02T16:34:56.865Z,7.65
2024-03-02T16:40:01.684Z,7.93
2024-03-02T16:45:05.445Z,8.87
2024-03-02T16:50:12.974Z,8.45
2024-03-02T16:55:18.286Z,8.02
2024-03-02T17:00:22.286Z,8.70
2024-03-02T17:05:25.638Z,9.93
2024-03-02T17:10:30.317Z,10.30
2024-03-02T17:15:33.538Z,13.60
2024-03-02T17:20:36.850Z,14.02
2024-03-02T17:25:41.514Z,13.32
2024-03-02T17:30:44.821Z,17.03
2024-03-02T17:35:48.650Z,21.70
2024-03-02T17:40:53.269Z,16.70
2024-03-02T17:45:56.631Z,16.50
2024-03-02T17:50:59.990Z,17.00
2024-03-02T17:56:06.154Z,17.33
2024-03-02T18:01:10.386Z,16.15
2024-03-02T18:06:15.693Z,18.63
2024-03-02T18:11:21.511Z,20.35
2024-03-02T18:16:25.163Z,16.33
2024-03-02T18:21:29.147Z,17.35
2024-03-02T18:26:35.877Z,16.58
2024-03-02T18:31:39.683Z,16.90
2024-03-02T18:36:43.714Z,17.70
2024-03-02T18:41:48.375Z,18.15
2024-03-02T18:46:51.735Z,18.93
2024-03-02T18:51:55.140Z,18.98
2024-03-02T18:56:59.906Z,19.95
2024-03-02T19:02:03.256Z,22.70
2024-03-02T19:07:07.059Z,21.70
2024-03-02T19:12:11.852Z,22.85
2024-03-02T19:17:15.142Z,21.77
2024-03-02T19:22:18.468Z,23.60
2024-03-02T19:27:23.128Z,23.98
2024-03-02T19:32:26.517Z,23.40
2024-03-02T19:37:29.839Z,23.63
2024-03-02T19:42:35.970Z,23.65
2024-03-02T19:47:39.490Z,23.42
2024-03-02T19:52:42.838Z,23.42
2024-03-02T19:57:47.630Z,23.58
2024-03-02T20:02:51.477Z,24.73
2024-03-02T20:07:55.001Z,26.20
2024-03-02T20:13:00.172Z,22.95
2024-03-02T20:18:03.659Z,24.02
2024-03-02T20:23:07.433Z,25.60
2024-03-02T20:28:12.262Z,22.85
2024-03-02T20:33:16.076Z,25.75
2024-03-02T20:38:19.963Z,22.23
2024-03-02T20:43:24.628Z,23.05
2024-03-02T20:48:29.753Z,22.73
2024-03-02T20:53:33.234Z,23.38
2024-03-02T20:58:37.863Z,22.50
2024-03-02T21:03:41.805Z,23.47
2024-03-02T21:08:45.181Z,24.13
2024-03-02T21:13:50.517Z,24.92
2024-03-02T21:18:55.004Z,25.33
2024-03-02T21:23:58.425Z,24.02
2024-03-02T21:29:05.217Z,25.50
2024-03-02T21:34:08.615Z,26.92
2024-03-02T21:39:11.949Z,26.80
2024-03-02T21:44:16.714Z,27.17
2024-03-02T21:49:20.673Z,28.30
2024-03-02T21:54:23.978Z,28.20
2024-03-02T21:59:28.637Z,26.90
2024-03-02T22:04:32.352Z,26.30
2024-03-02T22:09:36.045Z,28.58
2024-03-02T22:14:41.049Z,27.80
2024-03-02T22:19:44.707Z,26.40
2024-03-02T22:24:48.007Z,25.15
2024-03-02T22:29:52.696Z,27.17
2024-03-02T22:34:56.528Z,27.00
2024-03-02T22:40:00.107Z,28.27
2024-03-02T22:45:05.203Z,26.00
2024-03-02T22:50:09.601Z,25.98
2024-03-02T22:55:13.136Z,24.85
2024-03-02T23:00:32.695Z,24.75
2024-03-02T23:05:36.008Z,25.98
2024-03-02T23:10:39.411Z,24.00
2024-03-02T23:15:44.568Z,23.85
2024-03-02T23:20:48.378Z,24.85
2024-03-02T23:25:52.473Z,25.17
2024-03-02T23:30:57.530Z,25.73
2024-03-02T23:36:00.915Z,27.13
2024-03-02T23:41:11.370Z,26.30
2024-03-02T23:46:16.686Z,24.90
2024-03-02T23:51:20.163Z,23.75
2024-03-02T23:56:23.510Z,24.50
